Lakehurst, New Jersey
Current Conditions -  °F | °C
As of 11:15 AM on Wednesday 28 Jan 2015 (Local Time) from KMJX Reporting Station
Clear Clear  
Wind Chill: 13°   Ceiling: Unl
Heat Index: 25°   Visibility: 10mi
Dew Point:   Wind: 14mph
Humidity: 50%   Direction: 310°NW
Pressure: 30.09"   Gusts: 26mph
Location:  40.01°N, 74.31°W
Report Text: KMJX 281615Z AUTO 31012G23KT 10SM CLR M04/M13 A3009 RMK AO1
Loading
Personal Weather Stations






























Interactive Weather Map New forecast layout! Learn more

10-Day Weather Forecast

Advertisements
Track Severe Weather on mobile